Time;durP1;ratioP1;P1;durP2;ratioP2;P2;SDS_P1;SDS_P2;PMS_P1;PMS_P2;Temp;Humidity;BMP_temperature;BMP_pressure;BME280_temperature;BME280_humidity;BME280_pressure;Samples;Min_cycle;Max_cycle;Signal;HPM_P1;HPM_P2
2024/02/04 00:02:25;;;;;;;0.10;0.10;;;;;;;;;;5034273;28;20052;-86
2024/02/04 00:04:54;;;;;;;0.10;0.10;;;;;;;;;;5034289;28;20128;-87
2024/02/04 00:07:20;;;;;;;0.10;0.10;;;;;;;;;;5034182;28;20049;-86
2024/02/04 00:09:46;;;;;;;0.10;0.10;;;;;;;;;;5017906;28;20041;-85
2024/02/04 00:12:12;;;;;;;0.20;0.20;;;;;;;;;;5034198;28;20041;-83
2024/02/04 00:14:38;;;;;;;0.10;0.10;;;;;;;;;;5017802;28;20080;-85
2024/02/04 00:17:04;;;;;;;0.20;0.20;;;;;;;;;;5017712;28;20064;-84
2024/02/04 00:19:30;;;;;;;0.10;0.10;;;;;;;;;;5034248;28;20049;-84
2024/02/04 00:21:56;;;;;;;0.10;0.10;;;;;;;;;;5017171;28;20043;-83
2024/02/04 00:24:22;;;;;;;0.10;0.10;;;;;;;;;;5050845;28;20400;-84
2024/02/04 00:26:48;;;;;;;0.20;0.20;;;;;;;;;;5034027;28;20041;-83
2024/02/04 00:29:14;;;;;;;0.20;0.20;;;;;;;;;;5033984;28;20123;-84
2024/02/04 00:31:41;;;;;;;1.27;0.25;;;;;;;;;;5034045;28;20083;-84
2024/02/04 00:34:07;;;;;;;0.45;0.45;;;;;;;;;;5034136;28;20037;-83
2024/02/04 00:36:33;;;;;;;0.10;0.10;;;;;;;;;;5017952;28;20048;-85
2024/02/04 00:38:59;;;;;;;0.10;0.10;;;;;;;;;;5017579;28;20481;-84
2024/02/04 00:41:25;;;;;;;0.10;0.10;;;;;;;;;;5033811;28;20048;-85
2024/02/04 00:43:52;;;;;;;0.10;0.10;;;;;;;;;;5017566;28;20045;-85
2024/02/04 00:46:19;;;;;;;0.10;0.10;;;;;;;;;;5017335;28;20037;-84
2024/02/04 00:48:45;;;;;;;0.10;0.10;;;;;;;;;;5033676;28;20087;-85
2024/02/04 00:51:13;;;;;;;0.10;0.10;;;;;;;;;;5017467;28;20120;-84
2024/02/04 00:53:39;;;;;;;0.10;0.10;;;;;;;;;;5033824;28;20396;-85
2024/02/04 00:56:05;;;;;;;0.10;0.10;;;;;;;;;;5017571;28;20079;-84
2024/02/04 00:58:31;;;;;;;0.10;0.10;;;;;;;;;;5017628;28;20545;-85
2024/02/04 01:00:57;;;;;;;0.10;0.10;;;;;;;;;;5017287;28;20041;-85
2024/02/04 01:03:23;;;;;;;0.20;0.20;;;;;;;;;;5017605;28;20041;-85
2024/02/04 01:05:49;;;;;;;0.20;0.20;;;;;;;;;;5034074;28;20044;-84
2024/02/04 01:08:15;;;;;;;0.20;0.20;;;;;;;;;;5017301;28;20045;-84
2024/02/04 01:10:41;;;;;;;0.10;0.10;;;;;;;;;;5017484;28;20056;-84
2024/02/04 01:13:07;;;;;;;0.10;0.10;;;;;;;;;;5017239;28;20083;-84
2024/02/04 01:15:33;;;;;;;0.10;0.10;;;;;;;;;;5014118;28;20107;-85
2024/02/04 01:18:00;;;;;;;0.10;0.10;;;;;;;;;;5013946;28;20045;-85
2024/02/04 01:20:27;;;;;;;0.17;0.17;;;;;;;;;;4997526;28;20092;-85
2024/02/04 01:22:53;;;;;;;0.10;0.10;;;;;;;;;;4997762;28;20077;-85
2024/02/04 01:25:19;;;;;;;0.10;0.10;;;;;;;;;;4997532;28;20041;-85
2024/02/04 01:27:45;;;;;;;0.10;0.10;;;;;;;;;;4997587;28;20073;-84
2024/02/04 01:30:11;;;;;;;0.10;0.10;;;;;;;;;;5013716;28;20167;-84
2024/02/04 01:32:37;;;;;;;0.10;0.10;;;;;;;;;;4998421;28;20079;-85
2024/02/04 01:35:03;;;;;;;0.10;0.10;;;;;;;;;;5017727;28;20037;-85
2024/02/04 01:37:29;;;;;;;0.20;0.20;;;;;;;;;;5001297;28;20389;-84
2024/02/04 01:39:55;;;;;;;0.10;0.10;;;;;;;;;;5033463;28;20037;-85
2024/02/04 01:42:21;;;;;;;0.10;0.10;;;;;;;;;;5033546;28;20045;-84
2024/02/04 01:44:47;;;;;;;0.10;0.10;;;;;;;;;;5000793;28;20496;-85
2024/02/04 01:47:14;;;;;;;0.10;0.10;;;;;;;;;;5033295;28;20042;-85
2024/02/04 01:49:40;;;;;;;0.10;0.10;;;;;;;;;;5033285;28;20045;-85
2024/02/04 01:52:06;;;;;;;0.10;0.10;;;;;;;;;;5017360;28;20038;-85
2024/02/04 01:54:33;;;;;;;0.10;0.10;;;;;;;;;;5017235;28;20041;-84
2024/02/04 01:57:01;;;;;;;0.10;0.10;;;;;;;;;;5033282;28;20045;-85
2024/02/04 01:59:30;;;;;;;0.15;0.15;;;;;;;;;;5000949;28;20046;-84
2024/02/04 02:01:56;;;;;;;0.10;0.10;;;;;;;;;;5000788;28;20042;-85
2024/02/04 02:04:22;;;;;;;0.10;0.10;;;;;;;;;;5016601;28;20049;-84
2024/02/04 02:06:48;;;;;;;0.10;0.10;;;;;;;;;;5000384;28;20041;-84
2024/02/04 02:09:15;;;;;;;0.10;0.10;;;;;;;;;;5016901;28;20124;-85
2024/02/04 02:11:41;;;;;;;0.10;0.10;;;;;;;;;;5000265;28;20040;-85
2024/02/04 02:14:11;;;;;;;0.10;0.10;;;;;;;;;;5016780;28;20052;-85
2024/02/04 02:16:37;;;;;;;0.10;0.10;;;;;;;;;;5016567;28;20497;-86
2024/02/04 02:19:18;;;;;;;0.13;0.13;;;;;;;;;;5033162;28;20079;-86
2024/02/04 02:21:53;;;;;;;0.10;0.10;;;;;;;;;;5000095;28;20128;-85
2024/02/04 02:24:22;;;;;;;0.10;0.10;;;;;;;;;;5032705;28;20045;-86
2024/02/04 02:26:49;;;;;;;0.10;0.10;;;;;;;;;;5032505;28;20052;-85
2024/02/04 02:29:15;;;;;;;0.10;0.10;;;;;;;;;;5032939;28;20048;-85
2024/02/04 02:31:41;;;;;;;0.10;0.10;;;;;;;;;;5000034;28;20033;-85
2024/02/04 02:34:07;;;;;;;1.23;0.22;;;;;;;;;;5016367;28;20041;-85
2024/02/04 02:36:34;;;;;;;0.10;0.10;;;;;;;;;;4999860;28;20041;-85
2024/02/04 02:39:11;;;;;;;0.10;0.10;;;;;;;;;;5000123;28;20052;-83
2024/02/04 02:41:37;;;;;;;0.10;0.10;;;;;;;;;;4999947;28;20048;-85
2024/02/04 02:44:03;;;;;;;0.10;0.10;;;;;;;;;;4999429;28;20052;-85
2024/02/04 02:46:29;;;;;;;0.10;0.10;;;;;;;;;;5015957;28;20048;-85
2024/02/04 02:48:56;;;;;;;0.10;0.10;;;;;;;;;;4999908;28;20037;-85
2024/02/04 02:51:22;;;;;;;0.20;0.20;;;;;;;;;;5015815;28;20044;-85
2024/02/04 02:53:48;;;;;;;0.10;0.10;;;;;;;;;;4999655;28;20046;-85
2024/02/04 02:56:14;;;;;;;0.10;0.10;;;;;;;;;;5015824;28;20037;-85
2024/02/04 02:58:40;;;;;;;0.30;0.30;;;;;;;;;;4999811;28;20148;-86
2024/02/04 03:01:06;;;;;;;0.10;0.10;;;;;;;;;;4999419;28;20073;-85
2024/02/04 03:03:32;;;;;;;0.10;0.10;;;;;;;;;;4999626;28;20143;-84
2024/02/04 03:05:58;;;;;;;0.10;0.10;;;;;;;;;;4999354;28;20075;-85
2024/02/04 03:08:24;;;;;;;0.10;0.10;;;;;;;;;;4999267;28;20512;-85
2024/02/04 03:10:50;;;;;;;0.10;0.10;;;;;;;;;;4999426;28;20602;-85
2024/02/04 03:13:16;;;;;;;0.10;0.10;;;;;;;;;;5015476;28;20033;-85
2024/02/04 03:15:42;;;;;;;0.10;0.10;;;;;;;;;;5015635;28;20420;-85
2024/02/04 03:18:09;;;;;;;0.10;0.10;;;;;;;;;;4999253;28;20061;-85
2024/02/04 03:20:35;;;;;;;0.10;0.10;;;;;;;;;;4998984;28;20045;-86
2024/02/04 03:23:01;;;;;;;0.10;0.10;;;;;;;;;;5015426;28;20044;-86
2024/02/04 03:25:29;;;;;;;0.10;0.10;;;;;;;;;;5015199;28;20449;-86
2024/02/04 03:27:55;;;;;;;0.10;0.10;;;;;;;;;;5015555;28;20045;-86
2024/02/04 03:30:21;;;;;;;0.10;0.10;;;;;;;;;;4999036;28;20040;-88
2024/02/04 03:32:47;;;;;;;0.10;0.10;;;;;;;;;;4999072;28;20439;-85
2024/02/04 03:35:13;;;;;;;0.10;0.10;;;;;;;;;;4998977;28;20044;-84
2024/02/04 03:37:39;;;;;;;0.10;0.10;;;;;;;;;;5014854;28;20485;-85
2024/02/04 03:40:06;;;;;;;0.10;0.10;;;;;;;;;;5015142;28;20071;-85
2024/02/04 03:42:32;;;;;;;0.10;0.10;;;;;;;;;;4998751;28;20041;-85
2024/02/04 03:44:58;;;;;;;0.10;0.10;;;;;;;;;;4998679;28;20079;-85
2024/02/04 03:47:24;;;;;;;0.10;0.10;;;;;;;;;;5014831;28;20091;-84
2024/02/04 03:49:50;;;;;;;0.10;0.10;;;;;;;;;;5015026;28;20048;-85
2024/02/04 03:52:16;;;;;;;0.52;0.52;;;;;;;;;;4998377;28;20099;-85
2024/02/04 03:54:42;;;;;;;0.10;0.10;;;;;;;;;;5030941;28;20037;-85
2024/02/04 03:57:08;;;;;;;0.20;0.20;;;;;;;;;;5014379;28;20046;-85
2024/02/04 03:59:34;;;;;;;0.10;0.10;;;;;;;;;;5014677;28;20552;-85
2024/02/04 04:02:00;;;;;;;0.10;0.10;;;;;;;;;;4998287;28;20076;-85
2024/02/04 04:04:26;;;;;;;0.10;0.10;;;;;;;;;;4998356;28;20088;-85
2024/02/04 04:06:52;;;;;;;0.10;0.10;;;;;;;;;;5014409;28;20485;-84
2024/02/04 04:09:18;;;;;;;0.10;0.10;;;;;;;;;;4998415;28;20038;-85
2024/02/04 04:11:45;;;;;;;0.10;0.10;;;;;;;;;;4998131;28;20182;-84
2024/02/04 04:14:11;;;;;;;0.10;0.10;;;;;;;;;;5030794;28;20034;-84
2024/02/04 04:16:37;;;;;;;0.10;0.10;;;;;;;;;;5014023;28;20480;-85
2024/02/04 04:19:03;;;;;;;0.20;0.20;;;;;;;;;;4998285;28;20039;-84
2024/02/04 04:21:29;;;;;;;0.30;0.30;;;;;;;;;;4998250;28;20045;-85
2024/02/04 04:23:55;;;;;;;0.20;0.20;;;;;;;;;;4998423;28;20401;-85
2024/02/04 04:26:21;;;;;;;0.10;0.10;;;;;;;;;;5014376;28;20041;-85
2024/02/04 04:28:47;;;;;;;0.10;0.10;;;;;;;;;;4998458;28;20502;-85
2024/02/04 04:31:13;;;;;;;0.20;0.20;;;;;;;;;;5014465;28;20037;-84
2024/02/04 04:33:39;;;;;;;0.10;0.10;;;;;;;;;;5014615;28;20037;-85
2024/02/04 04:36:06;;;;;;;0.10;0.10;;;;;;;;;;5014629;28;20049;-85
2024/02/04 04:38:32;;;;;;;0.10;0.10;;;;;;;;;;4998611;28;20404;-85
2024/02/04 04:40:58;;;;;;;0.10;0.10;;;;;;;;;;5014308;28;20087;-85
2024/02/04 04:43:26;;;;;;;0.10;0.10;;;;;;;;;;4998347;28;20088;-85
2024/02/04 04:45:52;;;;;;;0.10;0.10;;;;;;;;;;4998567;28;20045;-84
2024/02/04 04:48:18;;;;;;;0.10;0.10;;;;;;;;;;5014380;28;20100;-84
2024/02/04 04:50:44;;;;;;;0.10;0.10;;;;;;;;;;5014267;28;20556;-84
2024/02/04 04:53:10;;;;;;;0.10;0.10;;;;;;;;;;4997973;28;20045;-85
2024/02/04 04:55:36;;;;;;;0.10;0.10;;;;;;;;;;5014243;28;20045;-85
2024/02/04 04:58:03;;;;;;;0.10;0.10;;;;;;;;;;5014427;28;20128;-85
2024/02/04 05:00:29;;;;;;;0.10;0.10;;;;;;;;;;5014016;28;20378;-86
2024/02/04 05:02:55;;;;;;;0.10;0.10;;;;;;;;;;4998199;28;20124;-85
2024/02/04 05:05:21;;;;;;;0.10;0.10;;;;;;;;;;5014156;28;20046;-84
2024/02/04 05:07:47;;;;;;;0.10;0.10;;;;;;;;;;5000746;28;20386;-85
2024/02/04 05:10:13;;;;;;;0.10;0.10;;;;;;;;;;5001414;28;20041;-85
2024/02/04 05:12:39;;;;;;;0.10;0.10;;;;;;;;;;5001504;28;20037;-85
2024/02/04 05:15:05;;;;;;;0.10;0.10;;;;;;;;;;5019306;28;20120;-85
2024/02/04 05:17:33;;;;;;;0.20;0.20;;;;;;;;;;5021162;28;20049;-85
2024/02/04 05:19:59;;;;;;;0.10;0.10;;;;;;;;;;5053937;28;20073;-85
2024/02/04 05:22:25;;;;;;;0.10;0.10;;;;;;;;;;5020805;28;20091;-85
2024/02/04 05:24:51;;;;;;;0.10;0.10;;;;;;;;;;5037340;28;20041;-85
2024/02/04 05:27:17;;;;;;;0.20;0.20;;;;;;;;;;5037262;28;20047;-85
2024/02/04 05:29:43;;;;;;;0.10;0.10;;;;;;;;;;5037620;28;20388;-85
2024/02/04 05:32:09;;;;;;;0.20;0.20;;;;;;;;;;5020604;28;20127;-85
2024/02/04 05:34:37;;;;;;;0.10;0.10;;;;;;;;;;5020965;28;20107;-85
2024/02/04 05:37:03;;;;;;;0.10;0.10;;;;;;;;;;5037466;28;20055;-85
2024/02/04 05:39:29;;;;;;;0.10;0.10;;;;;;;;;;5020831;28;20085;-84
2024/02/04 05:41:55;;;;;;;0.20;0.20;;;;;;;;;;5037018;28;20129;-85
2024/02/04 05:44:21;;;;;;;0.98;0.98;;;;;;;;;;5054939;28;20056;-85
2024/02/04 05:46:47;;;;;;;0.10;0.10;;;;;;;;;;5036577;28;20492;-85
2024/02/04 05:49:13;;;;;;;0.10;0.10;;;;;;;;;;5036778;28;20048;-85
2024/02/04 05:51:40;;;;;;;0.10;0.10;;;;;;;;;;5020203;28;20040;-84
2024/02/04 05:54:06;;;;;;;0.20;0.20;;;;;;;;;;5037026;28;20400;-84
2024/02/04 05:56:32;;;;;;;0.10;0.10;;;;;;;;;;5020612;28;20130;-85
2024/02/04 05:58:58;;;;;;;0.10;0.10;;;;;;;;;;5037058;28;20041;-84
2024/02/04 06:01:24;;;;;;;0.15;0.15;;;;;;;;;;5036357;28;20127;-85
2024/02/04 06:03:50;;;;;;;0.10;0.10;;;;;;;;;;5020123;28;20044;-85
2024/02/04 06:06:19;;;;;;;0.10;0.10;;;;;;;;;;5020110;28;20037;-84
2024/02/04 06:08:45;;;;;;;0.85;0.30;;;;;;;;;;5036224;28;20040;-84
2024/02/04 06:11:12;;;;;;;0.47;0.47;;;;;;;;;;5036541;28;20033;-86
2024/02/04 06:13:39;;;;;;;0.10;0.10;;;;;;;;;;5020002;28;20084;-85
2024/02/04 06:16:06;;;;;;;0.10;0.10;;;;;;;;;;5035987;28;20137;-85
2024/02/04 06:18:32;;;;;;;0.10;0.10;;;;;;;;;;5018995;28;20097;-85
2024/02/04 06:20:58;;;;;;;0.10;0.10;;;;;;;;;;5036095;28;20077;-85
2024/02/04 06:23:24;;;;;;;0.10;0.10;;;;;;;;;;5036369;28;20087;-85
2024/02/04 06:25:50;;;;;;;0.10;0.10;;;;;;;;;;5036189;28;20040;-85
2024/02/04 06:28:16;;;;;;;0.10;0.10;;;;;;;;;;5019461;28;20045;-85
2024/02/04 06:30:42;;;;;;;0.10;0.10;;;;;;;;;;5035873;28;20083;-85
2024/02/04 06:33:08;;;;;;;0.30;0.30;;;;;;;;;;5019819;28;20040;-85
2024/02/04 06:35:34;;;;;;;0.10;0.10;;;;;;;;;;5036117;28;20098;-85
2024/02/04 06:38:00;;;;;;;0.10;0.10;;;;;;;;;;5035870;28;20041;-85
2024/02/04 06:40:26;;;;;;;0.10;0.10;;;;;;;;;;5019244;28;20040;-85
2024/02/04 06:42:52;;;;;;;0.10;0.10;;;;;;;;;;5035850;28;20052;-85
2024/02/04 06:45:18;;;;;;;0.50;0.50;;;;;;;;;;5019583;28;20516;-85
2024/02/04 06:47:45;;;;;;;0.10;0.10;;;;;;;;;;5019266;28;20080;-85
2024/02/04 06:50:14;;;;;;;0.10;0.10;;;;;;;;;;5035485;28;20071;-85
2024/02/04 06:52:40;;;;;;;0.10;0.10;;;;;;;;;;5019016;28;20037;-85
2024/02/04 06:55:07;;;;;;;0.10;0.10;;;;;;;;;;5019111;28;20072;-85
2024/02/04 06:57:33;;;;;;;0.10;0.10;;;;;;;;;;5019018;28;20049;-85
2024/02/04 06:59:59;;;;;;;0.65;0.30;;;;;;;;;;5019026;28;20045;-84
2024/02/04 07:02:26;;;;;;;0.10;0.10;;;;;;;;;;5052084;28;20076;-85
2024/02/04 07:04:53;;;;;;;0.20;0.20;;;;;;;;;;5019087;28;20049;-85
2024/02/04 07:07:19;;;;;;;0.10;0.10;;;;;;;;;;5035170;28;20124;-85
2024/02/04 07:09:45;;;;;;;0.10;0.10;;;;;;;;;;5035302;28;20076;-85
2024/02/04 07:12:11;;;;;;;0.10;0.10;;;;;;;;;;5053005;28;20037;-85
2024/02/04 07:14:37;;;;;;;0.10;0.10;;;;;;;;;;5018692;28;20099;-85
2024/02/04 07:17:03;;;;;;;0.10;0.10;;;;;;;;;;5031600;28;20092;-85
2024/02/04 07:19:29;;;;;;;0.10;0.10;;;;;;;;;;5015284;28;20037;-85
2024/02/04 07:21:55;;;;;;;0.70;0.32;;;;;;;;;;4999131;28;20045;-84
2024/02/04 07:24:21;;;;;;;0.20;0.20;;;;;;;;;;4998984;28;20077;-84
2024/02/04 07:26:47;;;;;;;0.10;0.10;;;;;;;;;;4998887;28;20052;-86
2024/02/04 07:29:14;;;;;;;0.10;0.10;;;;;;;;;;5015168;28;20033;-86
2024/02/04 07:31:40;;;;;;;0.43;0.20;;;;;;;;;;4998051;28;20041;-86
2024/02/04 07:34:06;;;;;;;0.10;0.10;;;;;;;;;;4998720;28;20083;-86
2024/02/04 07:36:32;;;;;;;0.10;0.10;;;;;;;;;;4998781;28;20128;-86
2024/02/04 07:38:59;;;;;;;0.95;0.55;;;;;;;;;;4999184;28;20386;-87
2024/02/04 07:41:25;;;;;;;2.70;0.25;;;;;;;;;;4999075;28;20124;-87
2024/02/04 07:43:51;;;;;;;0.10;0.10;;;;;;;;;;5002237;28;20508;-86
2024/02/04 07:46:17;;;;;;;0.30;0.30;;;;;;;;;;5018639;28;20034;-86
2024/02/04 07:48:43;;;;;;;0.10;0.10;;;;;;;;;;4998594;28;20091;-86
2024/02/04 07:51:09;;;;;;;0.10;0.10;;;;;;;;;;4998456;28;20095;-85
2024/02/04 07:53:38;;;;;;;0.20;0.20;;;;;;;;;;5015206;28;20045;-86
2024/02/04 07:56:06;;;;;;;0.10;0.10;;;;;;;;;;4999095;28;20046;-86
2024/02/04 07:58:33;;;;;;;0.10;0.10;;;;;;;;;;5014731;28;20045;-85
2024/02/04 08:00:59;;;;;;;0.10;0.10;;;;;;;;;;5031084;28;20043;-86
2024/02/04 08:03:26;;;;;;;0.10;0.10;;;;;;;;;;4998656;28;20416;-86
2024/02/04 08:05:52;;;;;;;0.10;0.10;;;;;;;;;;5014583;28;20092;-85
2024/02/04 08:08:18;;;;;;;0.10;0.10;;;;;;;;;;4998194;28;20037;-86
2024/02/04 08:10:45;;;;;;;0.10;0.10;;;;;;;;;;5014623;28;20049;-86
2024/02/04 08:13:11;;;;;;;0.10;0.10;;;;;;;;;;4998266;28;20072;-86
2024/02/04 08:15:37;;;;;;;0.10;0.10;;;;;;;;;;4998118;28;20054;-85
2024/02/04 08:18:04;;;;;;;0.10;0.10;;;;;;;;;;4998254;28;20111;-86
2024/02/04 08:20:31;;;;;;;0.10;0.10;;;;;;;;;;5014266;28;20045;-86
2024/02/04 08:22:57;;;;;;;0.10;0.10;;;;;;;;;;4998072;28;20052;-86
2024/02/04 08:25:23;;;;;;;0.10;0.10;;;;;;;;;;4997879;28;20045;-86
2024/02/04 08:27:49;;;;;;;0.10;0.10;;;;;;;;;;4997838;28;20037;-85
2024/02/04 08:30:16;;;;;;;0.20;0.20;;;;;;;;;;5014191;28;20481;-86
2024/02/04 08:32:42;;;;;;;0.20;0.20;;;;;;;;;;4998194;28;20049;-86
2024/02/04 08:35:08;;;;;;;0.10;0.10;;;;;;;;;;4997901;28;20033;-87
2024/02/04 08:37:35;;;;;;;0.10;0.10;;;;;;;;;;4997835;28;20041;-86
2024/02/04 08:40:02;;;;;;;0.13;0.13;;;;;;;;;;4998120;28;20068;-88
2024/02/04 08:42:28;;;;;;;0.10;0.10;;;;;;;;;;5001120;28;20045;-86
2024/02/04 08:44:56;;;;;;;0.10;0.10;;;;;;;;;;5018314;28;20136;-87
2024/02/04 08:47:22;;;;;;;3.92;0.35;;;;;;;;;;5001857;28;20084;-87
2024/02/04 08:49:48;;;;;;;0.10;0.10;;;;;;;;;;5001658;28;20033;-84
2024/02/04 08:52:14;;;;;;;0.20;0.20;;;;;;;;;;5018056;28;20392;-87
2024/02/04 08:54:40;;;;;;;0.10;0.10;;;;;;;;;;5001700;28;20045;-87
2024/02/04 08:57:06;;;;;;;0.10;0.10;;;;;;;;;;5018075;28;20041;-87
2024/02/04 08:59:32;;;;;;;0.10;0.10;;;;;;;;;;5034621;28;20083;-87
2024/02/04 09:01:59;;;;;;;0.20;0.20;;;;;;;;;;5017760;28;20108;-86
2024/02/04 09:04:25;;;;;;;0.10;0.10;;;;;;;;;;5001631;28;20041;-85
2024/02/04 09:06:51;;;;;;;0.20;0.20;;;;;;;;;;5017754;28;20168;-86
2024/02/04 09:09:17;;;;;;;0.30;0.30;;;;;;;;;;5017257;28;20056;-86
2024/02/04 09:11:43;;;;;;;0.10;0.10;;;;;;;;;;5001527;28;20350;-86
2024/02/04 09:14:09;;;;;;;0.10;0.10;;;;;;;;;;5017652;28;20033;-85
2024/02/04 09:16:37;;;;;;;0.10;0.10;;;;;;;;;;5017657;28;20137;-83
2024/02/04 09:19:04;;;;;;;0.13;0.13;;;;;;;;;;5017681;28;20088;-85
2024/02/04 09:21:30;;;;;;;0.10;0.10;;;;;;;;;;5001301;28;20076;-84
2024/02/04 09:23:57;;;;;;;0.10;0.10;;;;;;;;;;5001092;28;20041;-85
2024/02/04 09:26:23;;;;;;;0.20;0.20;;;;;;;;;;5001960;28;20114;-91
2024/02/04 09:28:49;;;;;;;0.10;0.10;;;;;;;;;;5002243;28;20048;-89
2024/02/04 09:31:16;;;;;;;0.10;0.10;;;;;;;;;;5001464;28;20078;-86
2024/02/04 09:33:42;;;;;;;0.20;0.20;;;;;;;;;;5017418;28;20049;-86
2024/02/04 09:36:08;;;;;;;0.20;0.20;;;;;;;;;;5001431;28;20051;-88
2024/02/04 09:38:34;;;;;;;0.10;0.10;;;;;;;;;;5001899;28;20056;-88
2024/02/04 09:41:03;;;;;;;0.20;0.20;;;;;;;;;;5018283;28;20080;-86
2024/02/04 09:43:30;;;;;;;0.20;0.20;;;;;;;;;;5001501;28;20044;-84
2024/02/04 09:45:56;;;;;;;0.10;0.10;;;;;;;;;;4997367;28;20111;-84
2024/02/04 09:48:23;;;;;;;0.10;0.10;;;;;;;;;;4997333;28;20081;-84
2024/02/04 09:50:50;;;;;;;0.40;0.40;;;;;;;;;;4981531;28;20097;-83
2024/02/04 09:53:16;;;;;;;0.20;0.20;;;;;;;;;;4986593;28;20117;-83
2024/02/04 09:55:42;;;;;;;0.60;0.60;;;;;;;;;;5016650;28;20083;-82
2024/02/04 09:58:08;;;;;;;0.10;0.10;;;;;;;;;;5013046;28;20048;-84
2024/02/04 10:00:34;;;;;;;0.20;0.20;;;;;;;;;;4980924;28;20077;-84
2024/02/04 10:03:01;;;;;;;0.17;0.17;;;;;;;;;;5017592;28;20073;-84
2024/02/04 10:05:27;;;;;;;0.20;0.20;;;;;;;;;;5033184;28;20244;-84
2024/02/04 10:07:53;;;;;;;0.20;0.20;;;;;;;;;;5016477;28;20042;-83
2024/02/04 10:10:19;;;;;;;0.10;0.10;;;;;;;;;;5032762;28;20408;-84
2024/02/04 10:12:45;;;;;;;0.20;0.20;;;;;;;;;;4999995;28;20120;-84
2024/02/04 10:15:13;;;;;;;0.10;0.10;;;;;;;;;;5018781;28;20384;-84
2024/02/04 10:17:43;;;;;;;0.20;0.20;;;;;;;;;;5019075;28;20052;-84
2024/02/04 10:20:11;;;;;;;0.15;0.15;;;;;;;;;;5019725;28;20122;-83
2024/02/04 10:22:37;;;;;;;0.10;0.10;;;;;;;;;;5036346;28;20045;-86
2024/02/04 10:25:12;;;;;;;1.27;0.20;;;;;;;;;;5033636;28;20507;-86
2024/02/04 10:27:38;;;;;;;0.10;0.10;;;;;;;;;;5034981;28;20507;-85
2024/02/04 10:30:05;;;;;;;0.10;0.10;;;;;;;;;;5055787;28;20032;-86
2024/02/04 10:32:31;;;;;;;0.10;0.10;;;;;;;;;;5055708;28;20040;-85
2024/02/04 10:34:59;;;;;;;0.10;0.10;;;;;;;;;;5055410;28;20032;-85
2024/02/04 10:37:25;;;;;;;0.10;0.10;;;;;;;;;;5039266;28;20097;-86
2024/02/04 10:39:51;;;;;;;1.20;0.50;;;;;;;;;;5055214;28;20045;-86
2024/02/04 10:42:17;;;;;;;0.10;0.10;;;;;;;;;;5039017;28;20055;-84
2024/02/04 10:44:43;;;;;;;0.10;0.10;;;;;;;;;;5038833;28;20063;-84
2024/02/04 10:47:10;;;;;;;0.20;0.20;;;;;;;;;;5055563;28;20045;-84
2024/02/04 10:49:36;;;;;;;0.15;0.15;;;;;;;;;;5055160;28;20040;-85
2024/02/04 10:52:04;;;;;;;0.40;0.40;;;;;;;;;;5039098;28;20048;-85
2024/02/04 10:54:30;;;;;;;0.10;0.10;;;;;;;;;;5038406;28;20032;-86
2024/02/04 10:56:57;;;;;;;0.85;0.85;;;;;;;;;;5038899;28;20437;-86
2024/02/04 10:59:23;;;;;;;0.10;0.10;;;;;;;;;;5038641;28;20111;-85
2024/02/04 11:01:49;;;;;;;0.20;0.20;;;;;;;;;;5038888;28;20360;-86
2024/02/04 11:04:16;;;;;;;0.10;0.10;;;;;;;;;;5040089;28;20617;-86
2024/02/04 11:06:42;;;;;;;0.20;0.20;;;;;;;;;;5055262;28;20420;-91
2024/02/04 11:09:12;;;;;;;0.10;0.10;;;;;;;;;;5054955;28;20071;-87
2024/02/04 11:11:38;;;;;;;0.20;0.20;;;;;;;;;;5055332;28;20128;-88
2024/02/04 11:14:09;;;;;;;0.20;0.20;;;;;;;;;;5055194;28;20041;-88
2024/02/04 11:16:46;;;;;;;0.40;0.30;;;;;;;;;;5038961;28;20053;-87
2024/02/04 11:19:22;;;;;;;0.20;0.20;;;;;;;;;;5038123;28;20135;-87
2024/02/04 11:22:08;;;;;;;0.10;0.10;;;;;;;;;;5038339;28;20499;-88
2024/02/04 11:24:48;;;;;;;0.52;0.35;;;;;;;;;;5039198;28;20129;-90
2024/02/04 11:27:15;;;;;;;0.10;0.10;;;;;;;;;;5054939;28;20044;-89
2024/02/04 11:29:41;;;;;;;0.20;0.20;;;;;;;;;;5055677;28;20040;-90
2024/02/04 11:32:08;;;;;;;0.25;0.17;;;;;;;;;;5055525;28;20467;-90
2024/02/04 11:34:34;;;;;;;0.20;0.20;;;;;;;;;;5054824;28;20036;-89
2024/02/04 11:37:00;;;;;;;0.20;0.20;;;;;;;;;;5054537;28;20292;-89
2024/02/04 11:39:26;;;;;;;0.13;0.13;;;;;;;;;;5055071;28;20135;-89
2024/02/04 11:41:52;;;;;;;0.15;0.15;;;;;;;;;;5054409;28;20136;-86
2024/02/04 11:44:22;;;;;;;0.10;0.10;;;;;;;;;;5037766;28;20232;-86
2024/02/04 11:46:48;;;;;;;0.15;0.15;;;;;;;;;;5054688;28;20055;-86
2024/02/04 11:49:19;;;;;;;0.55;0.55;;;;;;;;;;5037977;28;20079;-85
2024/02/04 11:51:51;;;;;;;0.20;0.20;;;;;;;;;;5054389;28;20032;-86
2024/02/04 11:54:19;;;;;;;;;;;;;;;;;;5055027;28;20073;-86
2024/02/04 11:56:45;;;;;;;0.10;0.10;;;;;;;;;;5037796;28;19916;-86
2024/02/04 11:59:14;;;;;;;0.30;0.30;;;;;;;;;;5054660;28;20093;-85
2024/02/04 12:01:40;;;;;;;0.20;0.20;;;;;;;;;;5054167;28;20119;-86
2024/02/04 12:04:18;;;;;;;0.30;0.28;;;;;;;;;;5037567;28;20045;-86
2024/02/04 12:06:44;;;;;;;0.20;0.20;;;;;;;;;;5037670;28;20032;-86
2024/02/04 12:09:12;;;;;;;0.10;0.10;;;;;;;;;;5037996;28;20033;-86
2024/02/04 12:11:39;;;;;;;0.22;0.22;;;;;;;;;;5038086;28;20388;-86
2024/02/04 12:14:05;;;;;;;0.10;0.10;;;;;;;;;;5037667;28;20391;-86
2024/02/04 12:16:36;;;;;;;0.10;0.10;;;;;;;;;;5036994;28;20055;-86
2024/02/04 12:19:05;;;;;;;0.10;0.10;;;;;;;;;;5038706;28;20290;-90
2024/02/04 12:21:32;;;;;;;0.10;0.10;;;;;;;;;;5038412;28;20122;-88
2024/02/04 12:23:58;;;;;;;0.20;0.20;;;;;;;;;;5054598;28;20040;-86
2024/02/04 12:26:24;;;;;;;0.10;0.10;;;;;;;;;;5054138;28;20037;-86
2024/02/04 12:28:53;;;;;;;0.10;0.10;;;;;;;;;;5038221;28;20507;-88
2024/02/04 12:31:20;;;;;;;0.10;0.10;;;;;;;;;;5054765;28;20094;-88
2024/02/04 12:33:58;;;;;;;0.10;0.10;;;;;;;;;;5055529;28;20040;-90
2024/02/04 12:36:31;;;;;;;0.73;0.73;;;;;;;;;;5057114;28;20040;-92
2024/02/04 12:39:00;;;;;;;0.10;0.10;;;;;;;;;;5041624;28;20037;-93
2024/02/04 12:41:30;;;;;;;0.10;0.10;;;;;;;;;;5057692;28;20036;-94
2024/02/04 12:43:56;;;;;;;0.10;0.10;;;;;;;;;;5061480;28;20045;-92
2024/02/04 12:46:23;;;;;;;0.10;0.10;;;;;;;;;;5047254;28;20068;-96
2024/02/04 12:48:53;;;;;;;0.40;0.30;;;;;;;;;;5065385;28;20036;-94
2024/02/04 12:51:26;;;;;;;0.10;0.10;;;;;;;;;;5083785;28;20072;-95
2024/02/04 12:54:04;;;;;;;0.10;0.10;;;;;;;;;;5053084;28;20045;-96
2024/02/04 12:56:50;;;;;;;0.10;0.10;;;;;;;;;;5074684;28;20075;-93
2024/02/04 12:59:29;;;;;;;0.10;0.10;;;;;;;;;;5053943;28;20052;-93
2024/02/04 13:02:09;;;;;;;0.10;0.10;;;;;;;;;;5066672;28;20052;-96
2024/02/04 13:04:44;;;;;;;0.20;0.20;;;;;;;;;;5057156;28;20239;-96
2024/02/04 13:07:14;;;;;;;0.10;0.10;;;;;;;;;;5056657;28;20045;-94
2024/02/04 13:09:40;;;;;;;0.10;0.10;;;;;;;;;;5057218;28;20036;-96
2024/02/04 13:12:15;;;;;;;0.88;0.20;;;;;;;;;;5061136;28;20045;-92
2024/02/04 13:14:42;;;;;;;0.20;0.20;;;;;;;;;;5057586;28;20100;-95
2024/02/04 13:17:08;;;;;;;0.10;0.10;;;;;;;;;;5055440;28;20081;-93
2024/02/04 13:19:38;;;;;;;0.10;0.10;;;;;;;;;;5020790;28;20473;-90
2024/02/04 13:22:09;;;;;;;0.15;0.15;;;;;;;;;;5018056;28;20377;-90
2024/02/04 13:24:35;;;;;;;0.10;0.10;;;;;;;;;;5018006;28;20045;-89
2024/02/04 13:27:02;;;;;;;0.10;0.10;;;;;;;;;;5018451;28;20044;-95
2024/02/04 13:29:28;;;;;;;0.20;0.20;;;;;;;;;;5023467;28;20044;-92
2024/02/04 13:31:55;;;;;;;0.25;0.25;;;;;;;;;;5022635;28;20097;-93
2024/02/04 13:34:21;;;;;;;0.10;0.10;;;;;;;;;;5022679;28;20041;-92
2024/02/04 13:36:47;;;;;;;0.10;0.10;;;;;;;;;;5028147;28;20037;-93
2024/02/04 13:39:13;;;;;;;0.10;0.10;;;;;;;;;;5021180;28;20055;-87
2024/02/04 13:41:40;;;;;;;0.10;0.10;;;;;;;;;;5020576;28;20041;-88
2024/02/04 13:44:06;;;;;;;0.10;0.10;;;;;;;;;;5020717;28;20045;-88
2024/02/04 13:46:33;;;;;;;0.10;0.10;;;;;;;;;;5020495;28;20067;-87
2024/02/04 13:48:59;;;;;;;0.10;0.10;;;;;;;;;;5037035;28;20140;-88
2024/02/04 13:51:25;;;;;;;0.10;0.10;;;;;;;;;;5037128;28;20048;-91
2024/02/04 13:53:51;;;;;;;0.10;0.10;;;;;;;;;;5022340;28;20041;-90
2024/02/04 13:56:20;;;;;;;0.10;0.10;;;;;;;;;;5037568;28;20044;-90
2024/02/04 13:58:46;;;;;;;0.20;0.20;;;;;;;;;;5021267;28;20064;-90
2024/02/04 14:01:13;;;;;;;0.10;0.10;;;;;;;;;;5037289;28;20045;-90
2024/02/04 14:03:39;;;;;;;0.10;0.10;;;;;;;;;;5021108;28;20044;-90
2024/02/04 14:06:05;;;;;;;0.15;0.15;;;;;;;;;;5036708;28;20041;-87
2024/02/04 14:08:31;;;;;;;0.20;0.20;;;;;;;;;;5020411;28;20041;-89
2024/02/04 14:10:57;;;;;;;0.10;0.10;;;;;;;;;;5019843;28;20132;-88
2024/02/04 14:13:23;;;;;;;0.10;0.10;;;;;;;;;;5036594;28;20127;-87
2024/02/04 14:15:49;;;;;;;0.10;0.10;;;;;;;;;;5036560;28;20072;-88
2024/02/04 14:18:15;;;;;;;0.10;0.10;;;;;;;;;;5005820;28;20045;-87
2024/02/04 14:20:41;;;;;;;0.10;0.10;;;;;;;;;;5016451;28;20045;-87
2024/02/04 14:23:08;;;;;;;0.10;0.10;;;;;;;;;;5016810;28;20045;-87
2024/02/04 14:25:34;;;;;;;0.10;0.10;;;;;;;;;;5000082;28;20071;-87
2024/02/04 14:28:00;;;;;;;0.10;0.10;;;;;;;;;;5032743;28;20038;-89
2024/02/04 14:30:26;;;;;;;0.10;0.10;;;;;;;;;;5000391;28;20481;-90
2024/02/04 14:32:53;;;;;;;0.10;0.10;;;;;;;;;;5016762;28;20543;-89
2024/02/04 14:35:20;;;;;;;0.10;0.10;;;;;;;;;;5000675;28;20041;-91
2024/02/04 14:37:46;;;;;;;0.10;0.10;;;;;;;;;;5000836;28;20072;-91
2024/02/04 14:40:13;;;;;;;0.10;0.10;;;;;;;;;;5000394;28;20076;-93
2024/02/04 14:42:40;;;;;;;0.10;0.10;;;;;;;;;;5005181;28;20072;-91